sensor_id;sensor_type;location;lat;lon;timestamp;P1;durP1;ratioP1;P2;durP2;ratioP2
29240;SDS011;16268;49.880;8.648;2022-12-17T00:01:00;27.40;;;15.60;;
29240;SDS011;16268;49.880;8.648;2022-12-17T00:03:45;34.23;;;16.20;;
29240;SDS011;16268;49.880;8.648;2022-12-17T00:06:30;29.03;;;15.33;;
29240;SDS011;16268;49.880;8.648;2022-12-17T00:09:14;31.97;;;15.93;;
29240;SDS011;16268;49.880;8.648;2022-12-17T00:11:58;27.20;;;14.97;;
29240;SDS011;16268;49.880;8.648;2022-12-17T00:14:43;30.30;;;16.27;;
29240;SDS011;16268;49.880;8.648;2022-12-17T00:17:27;31.83;;;15.97;;
29240;SDS011;16268;49.880;8.648;2022-12-17T00:20:12;28.97;;;15.13;;
29240;SDS011;16268;49.880;8.648;2022-12-17T00:22:57;29.93;;;15.17;;
29240;SDS011;16268;49.880;8.648;2022-12-17T00:25:51;30.38;;;16.33;;
29240;SDS011;16268;49.880;8.648;2022-12-17T00:28:37;32.60;;;16.47;;
29240;SDS011;16268;49.880;8.648;2022-12-17T00:31:22;32.37;;;17.23;;
29240;SDS011;16268;49.880;8.648;2022-12-17T00:34:06;33.00;;;17.33;;
29240;SDS011;16268;49.880;8.648;2022-12-17T00:36:51;36.53;;;17.57;;
29240;SDS011;16268;49.880;8.648;2022-12-17T00:39:35;31.73;;;17.40;;
29240;SDS011;16268;49.880;8.648;2022-12-17T00:42:19;32.73;;;17.53;;
29240;SDS011;16268;49.880;8.648;2022-12-17T00:45:03;34.07;;;17.83;;
29240;SDS011;16268;49.880;8.648;2022-12-17T00:47:48;34.33;;;18.23;;
29240;SDS011;16268;49.880;8.648;2022-12-17T00:50:32;35.27;;;18.17;;
29240;SDS011;16268;49.880;8.648;2022-12-17T00:53:16;35.40;;;17.83;;
29240;SDS011;16268;49.880;8.648;2022-12-17T00:56:00;34.47;;;17.40;;
29240;SDS011;16268;49.880;8.648;2022-12-17T00:58:52;35.50;;;18.20;;
29240;SDS011;16268;49.880;8.648;2022-12-17T01:01:37;35.80;;;18.27;;
29240;SDS011;16268;49.880;8.648;2022-12-17T01:04:21;35.43;;;17.30;;
29240;SDS011;16268;49.880;8.648;2022-12-17T01:07:05;31.90;;;17.60;;
29240;SDS011;16268;49.880;8.648;2022-12-17T01:09:50;34.10;;;17.00;;
29240;SDS011;16268;49.880;8.648;2022-12-17T01:12:34;38.27;;;19.30;;
29240;SDS011;16268;49.880;8.648;2022-12-17T01:15:18;36.50;;;19.53;;
29240;SDS011;16268;49.880;8.648;2022-12-17T01:18:02;37.13;;;18.80;;
29240;SDS011;16268;49.880;8.648;2022-12-17T01:20:46;36.50;;;19.60;;
29240;SDS011;16268;49.880;8.648;2022-12-17T01:23:31;33.83;;;18.40;;
29240;SDS011;16268;49.880;8.648;2022-12-17T01:26:15;38.77;;;18.97;;
29240;SDS011;16268;49.880;8.648;2022-12-17T01:28:59;34.00;;;17.63;;
29240;SDS011;16268;49.880;8.648;2022-12-17T01:31:43;32.77;;;17.73;;
29240;SDS011;16268;49.880;8.648;2022-12-17T01:34:27;31.40;;;16.67;;
29240;SDS011;16268;49.880;8.648;2022-12-17T01:37:11;32.60;;;16.40;;
29240;SDS011;16268;49.880;8.648;2022-12-17T01:39:56;30.60;;;17.60;;
29240;SDS011;16268;49.880;8.648;2022-12-17T01:42:41;32.40;;;16.00;;
29240;SDS011;16268;49.880;8.648;2022-12-17T01:45:33;28.97;;;15.30;;
29240;SDS011;16268;49.880;8.648;2022-12-17T01:48:26;30.27;;;16.73;;
29240;SDS011;16268;49.880;8.648;2022-12-17T01:51:30;29.80;;;15.77;;
29240;SDS011;16268;49.880;8.648;2022-12-17T01:54:16;29.37;;;15.67;;
29240;SDS011;16268;49.880;8.648;2022-12-17T01:57:01;35.73;;;18.30;;
29240;SDS011;16268;49.880;8.648;2022-12-17T01:59:51;33.13;;;18.43;;
29240;SDS011;16268;49.880;8.648;2022-12-17T02:02:41;35.37;;;19.57;;
29240;SDS011;16268;49.880;8.648;2022-12-17T02:05:32;43.90;;;19.73;;
29240;SDS011;16268;49.880;8.648;2022-12-17T02:08:31;37.93;;;20.23;;
29240;SDS011;16268;49.880;8.648;2022-12-17T02:14:51;35.00;;;17.53;;
29240;SDS011;16268;49.880;8.648;2022-12-17T02:17:52;34.80;;;18.50;;
29240;SDS011;16268;49.880;8.648;2022-12-17T02:20:43;32.73;;;18.37;;
29240;SDS011;16268;49.880;8.648;2022-12-17T02:26:32;31.63;;;17.00;;
29240;SDS011;16268;49.880;8.648;2022-12-17T02:29:23;36.40;;;19.53;;
29240;SDS011;16268;49.880;8.648;2022-12-17T02:32:09;36.03;;;18.77;;
29240;SDS011;16268;49.880;8.648;2022-12-17T02:34:56;35.80;;;17.47;;
29240;SDS011;16268;49.880;8.648;2022-12-17T02:37:47;33.73;;;18.63;;
29240;SDS011;16268;49.880;8.648;2022-12-17T02:40:32;37.53;;;20.42;;
29240;SDS011;16268;49.880;8.648;2022-12-17T02:43:19;36.37;;;18.33;;
29240;SDS011;16268;49.880;8.648;2022-12-17T02:46:05;39.83;;;19.17;;
29240;SDS011;16268;49.880;8.648;2022-12-17T02:48:50;34.17;;;17.37;;
29240;SDS011;16268;49.880;8.648;2022-12-17T02:51:35;33.00;;;17.43;;
29240;SDS011;16268;49.880;8.648;2022-12-17T02:54:19;33.77;;;18.17;;
29240;SDS011;16268;49.880;8.648;2022-12-17T02:57:03;35.50;;;18.20;;
29240;SDS011;16268;49.880;8.648;2022-12-17T02:59:47;30.70;;;17.10;;
29240;SDS011;16268;49.880;8.648;2022-12-17T03:02:31;36.97;;;18.73;;
29240;SDS011;16268;49.880;8.648;2022-12-17T03:05:16;35.87;;;18.27;;
29240;SDS011;16268;49.880;8.648;2022-12-17T03:08:00;33.83;;;18.03;;
29240;SDS011;16268;49.880;8.648;2022-12-17T03:10:44;37.37;;;18.27;;
29240;SDS011;16268;49.880;8.648;2022-12-17T03:13:28;33.90;;;17.83;;
29240;SDS011;16268;49.880;8.648;2022-12-17T03:16:14;34.33;;;17.50;;
29240;SDS011;16268;49.880;8.648;2022-12-17T03:18:59;34.13;;;17.93;;
29240;SDS011;16268;49.880;8.648;2022-12-17T03:21:43;35.00;;;18.40;;
29240;SDS011;16268;49.880;8.648;2022-12-17T03:24:27;35.60;;;18.80;;
29240;SDS011;16268;49.880;8.648;2022-12-17T03:27:12;36.13;;;18.27;;
29240;SDS011;16268;49.880;8.648;2022-12-17T03:29:57;32.17;;;17.87;;
29240;SDS011;16268;49.880;8.648;2022-12-17T03:32:41;37.37;;;18.33;;
29240;SDS011;16268;49.880;8.648;2022-12-17T03:35:25;37.67;;;18.73;;
29240;SDS011;16268;49.880;8.648;2022-12-17T03:38:23;34.53;;;17.53;;
29240;SDS011;16268;49.880;8.648;2022-12-17T03:41:07;36.47;;;17.73;;
29240;SDS011;16268;49.880;8.648;2022-12-17T03:43:52;38.17;;;19.23;;
29240;SDS011;16268;49.880;8.648;2022-12-17T03:46:36;36.43;;;18.27;;
29240;SDS011;16268;49.880;8.648;2022-12-17T03:49:20;36.53;;;18.27;;
29240;SDS011;16268;49.880;8.648;2022-12-17T03:52:04;37.83;;;17.97;;
29240;SDS011;16268;49.880;8.648;2022-12-17T03:54:49;36.30;;;18.70;;
29240;SDS011;16268;49.880;8.648;2022-12-17T03:57:33;38.87;;;18.67;;
29240;SDS011;16268;49.880;8.648;2022-12-17T04:00:17;38.30;;;18.63;;
29240;SDS011;16268;49.880;8.648;2022-12-17T04:03:01;38.37;;;18.53;;
29240;SDS011;16268;49.880;8.648;2022-12-17T04:05:46;36.17;;;18.40;;
29240;SDS011;16268;49.880;8.648;2022-12-17T04:08:30;38.03;;;19.30;;
29240;SDS011;16268;49.880;8.648;2022-12-17T04:11:14;38.90;;;18.97;;
29240;SDS011;16268;49.880;8.648;2022-12-17T04:13:58;39.97;;;19.33;;
29240;SDS011;16268;49.880;8.648;2022-12-17T04:16:42;40.10;;;19.47;;
29240;SDS011;16268;49.880;8.648;2022-12-17T04:19:27;39.43;;;18.53;;
29240;SDS011;16268;49.880;8.648;2022-12-17T04:22:11;38.77;;;18.70;;
29240;SDS011;16268;49.880;8.648;2022-12-17T04:24:55;40.07;;;18.33;;
29240;SDS011;16268;49.880;8.648;2022-12-17T04:27:39;38.33;;;18.67;;
29240;SDS011;16268;49.880;8.648;2022-12-17T04:30:23;40.60;;;19.13;;
29240;SDS011;16268;49.880;8.648;2022-12-17T04:33:08;36.87;;;17.63;;
29240;SDS011;16268;49.880;8.648;2022-12-17T04:35:52;40.37;;;19.10;;
29240;SDS011;16268;49.880;8.648;2022-12-17T04:38:36;41.90;;;19.03;;
29240;SDS011;16268;49.880;8.648;2022-12-17T04:41:20;40.13;;;17.83;;
29240;SDS011;16268;49.880;8.648;2022-12-17T04:44:04;38.93;;;19.03;;
29240;SDS011;16268;49.880;8.648;2022-12-17T04:46:48;36.63;;;19.00;;
29240;SDS011;16268;49.880;8.648;2022-12-17T04:49:33;37.37;;;18.33;;
29240;SDS011;16268;49.880;8.648;2022-12-17T04:52:17;40.77;;;19.03;;
29240;SDS011;16268;49.880;8.648;2022-12-17T04:55:06;38.07;;;19.03;;
29240;SDS011;16268;49.880;8.648;2022-12-17T04:57:50;39.10;;;20.65;;
29240;SDS011;16268;49.880;8.648;2022-12-17T05:00:35;39.40;;;19.60;;
29240;SDS011;16268;49.880;8.648;2022-12-17T05:03:19;38.53;;;19.30;;
29240;SDS011;16268;49.880;8.648;2022-12-17T05:06:03;42.37;;;20.17;;
29240;SDS011;16268;49.880;8.648;2022-12-17T05:08:48;36.17;;;17.37;;
29240;SDS011;16268;49.880;8.648;2022-12-17T05:11:32;36.03;;;17.67;;
29240;SDS011;16268;49.880;8.648;2022-12-17T05:14:16;39.20;;;18.03;;
29240;SDS011;16268;49.880;8.648;2022-12-17T05:17:00;35.67;;;18.03;;
29240;SDS011;16268;49.880;8.648;2022-12-17T05:19:45;35.47;;;18.23;;
29240;SDS011;16268;49.880;8.648;2022-12-17T05:22:29;37.43;;;18.17;;
29240;SDS011;16268;49.880;8.648;2022-12-17T05:25:14;35.53;;;17.40;;
29240;SDS011;16268;49.880;8.648;2022-12-17T05:27:58;42.50;;;19.63;;
29240;SDS011;16268;49.880;8.648;2022-12-17T05:30:42;39.07;;;19.63;;
29240;SDS011;16268;49.880;8.648;2022-12-17T05:33:33;38.27;;;18.83;;
29240;SDS011;16268;49.880;8.648;2022-12-17T05:36:17;38.67;;;18.77;;
29240;SDS011;16268;49.880;8.648;2022-12-17T05:39:01;41.70;;;17.43;;
29240;SDS011;16268;49.880;8.648;2022-12-17T05:41:46;38.90;;;17.67;;
29240;SDS011;16268;49.880;8.648;2022-12-17T05:44:30;33.77;;;16.03;;
29240;SDS011;16268;49.880;8.648;2022-12-17T05:47:14;33.90;;;16.47;;
29240;SDS011;16268;49.880;8.648;2022-12-17T05:49:58;33.83;;;16.53;;
29240;SDS011;16268;49.880;8.648;2022-12-17T05:52:42;33.13;;;15.73;;
29240;SDS011;16268;49.880;8.648;2022-12-17T05:55:26;31.07;;;16.33;;
29240;SDS011;16268;49.880;8.648;2022-12-17T05:58:10;32.57;;;17.47;;
29240;SDS011;16268;49.880;8.648;2022-12-17T06:00:55;37.97;;;16.63;;
29240;SDS011;16268;49.880;8.648;2022-12-17T06:03:40;35.87;;;16.63;;
29240;SDS011;16268;49.880;8.648;2022-12-17T06:06:24;32.97;;;15.37;;
29240;SDS011;16268;49.880;8.648;2022-12-17T06:09:09;35.50;;;16.73;;
29240;SDS011;16268;49.880;8.648;2022-12-17T06:11:53;32.87;;;17.13;;
29240;SDS011;16268;49.880;8.648;2022-12-17T06:14:37;40.07;;;17.17;;
29240;SDS011;16268;49.880;8.648;2022-12-17T06:17:21;35.07;;;17.07;;
29240;SDS011;16268;49.880;8.648;2022-12-17T06:20:09;34.90;;;16.53;;
29240;SDS011;16268;49.880;8.648;2022-12-17T06:25:44;41.50;;;18.07;;
29240;SDS011;16268;49.880;8.648;2022-12-17T06:28:29;40.33;;;18.27;;
29240;SDS011;16268;49.880;8.648;2022-12-17T06:31:13;38.90;;;17.00;;
29240;SDS011;16268;49.880;8.648;2022-12-17T06:33:58;37.23;;;17.27;;
29240;SDS011;16268;49.880;8.648;2022-12-17T06:36:42;38.30;;;18.30;;
29240;SDS011;16268;49.880;8.648;2022-12-17T06:39:28;34.43;;;16.37;;
29240;SDS011;16268;49.880;8.648;2022-12-17T06:42:12;39.70;;;18.43;;
29240;SDS011;16268;49.880;8.648;2022-12-17T06:44:56;40.37;;;18.40;;
29240;SDS011;16268;49.880;8.648;2022-12-17T06:47:40;38.10;;;17.77;;
29240;SDS011;16268;49.880;8.648;2022-12-17T06:50:25;41.67;;;17.93;;
29240;SDS011;16268;49.880;8.648;2022-12-17T06:53:09;41.47;;;18.60;;
29240;SDS011;16268;49.880;8.648;2022-12-17T06:55:56;37.43;;;17.70;;
29240;SDS011;16268;49.880;8.648;2022-12-17T06:58:41;36.97;;;17.27;;
29240;SDS011;16268;49.880;8.648;2022-12-17T07:01:25;36.00;;;16.83;;
29240;SDS011;16268;49.880;8.648;2022-12-17T07:04:10;37.10;;;16.53;;
29240;SDS011;16268;49.880;8.648;2022-12-17T07:06:54;39.67;;;17.13;;
29240;SDS011;16268;49.880;8.648;2022-12-17T07:09:38;35.37;;;16.83;;
29240;SDS011;16268;49.880;8.648;2022-12-17T07:12:23;37.13;;;17.17;;
29240;SDS011;16268;49.880;8.648;2022-12-17T07:15:07;39.07;;;19.17;;
29240;SDS011;16268;49.880;8.648;2022-12-17T07:17:58;35.90;;;17.07;;
29240;SDS011;16268;49.880;8.648;2022-12-17T07:20:45;37.73;;;16.93;;
29240;SDS011;16268;49.880;8.648;2022-12-17T07:23:29;34.47;;;16.73;;
29240;SDS011;16268;49.880;8.648;2022-12-17T07:26:14;36.83;;;16.80;;
29240;SDS011;16268;49.880;8.648;2022-12-17T07:28:58;36.03;;;16.37;;
29240;SDS011;16268;49.880;8.648;2022-12-17T07:31:42;33.83;;;16.40;;
29240;SDS011;16268;49.880;8.648;2022-12-17T07:34:26;31.63;;;15.30;;
29240;SDS011;16268;49.880;8.648;2022-12-17T07:37:11;35.00;;;15.90;;
29240;SDS011;16268;49.880;8.648;2022-12-17T07:39:55;31.40;;;15.10;;
29240;SDS011;16268;49.880;8.648;2022-12-17T07:42:39;33.93;;;15.83;;
29240;SDS011;16268;49.880;8.648;2022-12-17T07:45:24;34.77;;;15.97;;
29240;SDS011;16268;49.880;8.648;2022-12-17T07:48:08;34.03;;;15.33;;
29240;SDS011;16268;49.880;8.648;2022-12-17T07:50:53;32.03;;;15.67;;
29240;SDS011;16268;49.880;8.648;2022-12-17T07:53:37;29.13;;;15.30;;
29240;SDS011;16268;49.880;8.648;2022-12-17T07:56:21;32.37;;;16.17;;
29240;SDS011;16268;49.880;8.648;2022-12-17T07:59:05;30.60;;;15.97;;
29240;SDS011;16268;49.880;8.648;2022-12-17T08:01:49;29.97;;;14.37;;
29240;SDS011;16268;49.880;8.648;2022-12-17T08:04:34;32.90;;;15.93;;
29240;SDS011;16268;49.880;8.648;2022-12-17T08:07:18;29.00;;;14.53;;
29240;SDS011;16268;49.880;8.648;2022-12-17T08:10:02;32.27;;;16.60;;
29240;SDS011;16268;49.880;8.648;2022-12-17T08:12:57;33.33;;;16.83;;
29240;SDS011;16268;49.880;8.648;2022-12-17T08:15:43;29.53;;;16.20;;
29240;SDS011;16268;49.880;8.648;2022-12-17T08:18:27;34.33;;;16.97;;
29240;SDS011;16268;49.880;8.648;2022-12-17T08:21:11;42.73;;;18.57;;
29240;SDS011;16268;49.880;8.648;2022-12-17T08:23:55;41.07;;;19.27;;
29240;SDS011;16268;49.880;8.648;2022-12-17T08:26:40;39.40;;;19.17;;
29240;SDS011;16268;49.880;8.648;2022-12-17T08:29:24;45.73;;;20.40;;
29240;SDS011;16268;49.880;8.648;2022-12-17T08:32:08;46.37;;;19.87;;
29240;SDS011;16268;49.880;8.648;2022-12-17T08:34:53;40.67;;;18.90;;
29240;SDS011;16268;49.880;8.648;2022-12-17T08:37:37;45.10;;;19.47;;
29240;SDS011;16268;49.880;8.648;2022-12-17T08:40:21;42.93;;;19.10;;
29240;SDS011;16268;49.880;8.648;2022-12-17T08:43:06;45.87;;;18.73;;
29240;SDS011;16268;49.880;8.648;2022-12-17T08:46:04;42.17;;;19.05;;
29240;SDS011;16268;49.880;8.648;2022-12-17T08:48:48;41.87;;;19.27;;
29240;SDS011;16268;49.880;8.648;2022-12-17T08:51:32;42.63;;;19.17;;
29240;SDS011;16268;49.880;8.648;2022-12-17T08:54:17;44.00;;;20.47;;
29240;SDS011;16268;49.880;8.648;2022-12-17T08:57:01;42.67;;;19.60;;
29240;SDS011;16268;49.880;8.648;2022-12-17T08:59:45;43.83;;;20.00;;
29240;SDS011;16268;49.880;8.648;2022-12-17T09:02:29;46.83;;;20.87;;
29240;SDS011;16268;49.880;8.648;2022-12-17T09:05:14;44.30;;;20.87;;
29240;SDS011;16268;49.880;8.648;2022-12-17T09:07:59;43.60;;;19.90;;
29240;SDS011;16268;49.880;8.648;2022-12-17T09:10:45;55.03;;;21.43;;
29240;SDS011;16268;49.880;8.648;2022-12-17T09:13:34;45.87;;;20.37;;
29240;SDS011;16268;49.880;8.648;2022-12-17T09:16:19;50.90;;;21.43;;
29240;SDS011;16268;49.880;8.648;2022-12-17T09:19:03;48.67;;;22.30;;
29240;SDS011;16268;49.880;8.648;2022-12-17T09:21:47;50.90;;;21.10;;
29240;SDS011;16268;49.880;8.648;2022-12-17T09:24:32;49.00;;;21.87;;
29240;SDS011;16268;49.880;8.648;2022-12-17T09:27:16;50.00;;;21.40;;
29240;SDS011;16268;49.880;8.648;2022-12-17T09:30:00;46.60;;;20.70;;
29240;SDS011;16268;49.880;8.648;2022-12-17T09:32:44;43.83;;;19.47;;
29240;SDS011;16268;49.880;8.648;2022-12-17T09:35:28;44.67;;;20.63;;
29240;SDS011;16268;49.880;8.648;2022-12-17T09:38:16;46.40;;;20.70;;
29240;SDS011;16268;49.880;8.648;2022-12-17T09:41:06;44.30;;;20.80;;
29240;SDS011;16268;49.880;8.648;2022-12-17T09:44:07;44.57;;;20.63;;
29240;SDS011;16268;49.880;8.648;2022-12-17T09:50:19;40.03;;;18.83;;
29240;SDS011;16268;49.880;8.648;2022-12-17T09:53:07;44.27;;;20.00;;
29240;SDS011;16268;49.880;8.648;2022-12-17T09:56:01;42.40;;;19.83;;
29240;SDS011;16268;49.880;8.648;2022-12-17T09:58:47;42.13;;;20.27;;
29240;SDS011;16268;49.880;8.648;2022-12-17T10:01:34;40.70;;;19.73;;
29240;SDS011;16268;49.880;8.648;2022-12-17T10:04:31;41.37;;;20.30;;
29240;SDS011;16268;49.880;8.648;2022-12-17T10:07:21;41.80;;;19.53;;
29240;SDS011;16268;49.880;8.648;2022-12-17T10:10:13;41.37;;;20.23;;
29240;SDS011;16268;49.880;8.648;2022-12-17T10:13:15;41.03;;;20.27;;
29240;SDS011;16268;49.880;8.648;2022-12-17T10:16:16;44.58;;;20.40;;
29240;SDS011;16268;49.880;8.648;2022-12-17T10:19:11;42.43;;;19.43;;
29240;SDS011;16268;49.880;8.648;2022-12-17T10:22:40;40.87;;;18.73;;
29240;SDS011;16268;49.880;8.648;2022-12-17T10:25:14;40.17;;;19.37;;
29240;SDS011;16268;49.880;8.648;2022-12-17T10:28:01;41.07;;;19.27;;
29240;SDS011;16268;49.880;8.648;2022-12-17T10:30:48;45.43;;;21.13;;
29240;SDS011;16268;49.880;8.648;2022-12-17T10:33:36;42.63;;;20.17;;
29240;SDS011;16268;49.880;8.648;2022-12-17T10:36:22;41.77;;;18.63;;
29240;SDS011;16268;49.880;8.648;2022-12-17T10:39:11;36.53;;;18.47;;
29240;SDS011;16268;49.880;8.648;2022-12-17T10:42:24;39.20;;;18.50;;
29240;SDS011;16268;49.880;8.648;2022-12-17T10:45:18;34.83;;;17.60;;
29240;SDS011;16268;49.880;8.648;2022-12-17T10:51:04;37.50;;;17.47;;
29240;SDS011;16268;49.880;8.648;2022-12-17T10:53:59;38.53;;;19.27;;
29240;SDS011;16268;49.880;8.648;2022-12-17T10:56:53;37.87;;;18.27;;
29240;SDS011;16268;49.880;8.648;2022-12-17T10:59:42;39.00;;;18.67;;
29240;SDS011;16268;49.880;8.648;2022-12-17T11:02:27;49.00;;;21.13;;
29240;SDS011;16268;49.880;8.648;2022-12-17T11:05:13;42.90;;;20.30;;
29240;SDS011;16268;49.880;8.648;2022-12-17T11:08:04;37.80;;;18.77;;
29240;SDS011;16268;49.880;8.648;2022-12-17T11:10:49;36.63;;;18.53;;
29240;SDS011;16268;49.880;8.648;2022-12-17T11:13:35;38.97;;;19.00;;
29240;SDS011;16268;49.880;8.648;2022-12-17T11:16:25;38.13;;;18.67;;
29240;SDS011;16268;49.880;8.648;2022-12-17T11:22:46;37.63;;;18.77;;
29240;SDS011;16268;49.880;8.648;2022-12-17T11:25:39;39.47;;;18.60;;
29240;SDS011;16268;49.880;8.648;2022-12-17T11:28:42;36.67;;;19.17;;
29240;SDS011;16268;49.880;8.648;2022-12-17T11:34:42;39.10;;;19.37;;
29240;SDS011;16268;49.880;8.648;2022-12-17T11:40:40;36.73;;;18.63;;
29240;SDS011;16268;49.880;8.648;2022-12-17T11:43:43;37.50;;;18.90;;
29240;SDS011;16268;49.880;8.648;2022-12-17T11:49:55;37.87;;;18.00;;
29240;SDS011;16268;49.880;8.648;2022-12-17T11:53:14;38.60;;;20.00;;
29240;SDS011;16268;49.880;8.648;2022-12-17T11:56:25;39.60;;;19.43;;
29240;SDS011;16268;49.880;8.648;2022-12-17T11:59:25;41.23;;;20.20;;
29240;SDS011;16268;49.880;8.648;2022-12-17T12:05:23;37.50;;;19.93;;
29240;SDS011;16268;49.880;8.648;2022-12-17T12:08:32;40.77;;;20.00;;
29240;SDS011;16268;49.880;8.648;2022-12-17T12:11:40;40.27;;;19.50;;
29240;SDS011;16268;49.880;8.648;2022-12-17T12:14:52;40.30;;;20.37;;
29240;SDS011;16268;49.880;8.648;2022-12-17T12:17:50;38.87;;;20.20;;
29240;SDS011;16268;49.880;8.648;2022-12-17T12:30:03;37.80;;;20.53;;
29240;SDS011;16268;49.880;8.648;2022-12-17T12:36:04;43.97;;;22.10;;
29240;SDS011;16268;49.880;8.648;2022-12-17T12:38:53;40.73;;;20.73;;
29240;SDS011;16268;49.880;8.648;2022-12-17T12:50:48;42.57;;;20.93;;
29240;SDS011;16268;49.880;8.648;2022-12-17T12:53:40;40.70;;;20.93;;
29240;SDS011;16268;49.880;8.648;2022-12-17T12:56:25;43.50;;;21.63;;
29240;SDS011;16268;49.880;8.648;2022-12-17T12:59:46;43.77;;;22.13;;
29240;SDS011;16268;49.880;8.648;2022-12-17T13:02:25;47.60;;;23.67;;
29240;SDS011;16268;49.880;8.648;2022-12-17T13:05:32;47.10;;;22.77;;
29240;SDS011;16268;49.880;8.648;2022-12-17T13:10:31;43.57;;;23.10;;
29240;SDS011;16268;49.880;8.648;2022-12-17T13:12:59;43.47;;;22.87;;
29240;SDS011;16268;49.880;8.648;2022-12-17T13:15:39;50.03;;;25.03;;
29240;SDS011;16268;49.880;8.648;2022-12-17T13:20:43;50.03;;;24.63;;
29240;SDS011;16268;49.880;8.648;2022-12-17T13:26:12;49.60;;;24.83;;
29240;SDS011;16268;49.880;8.648;2022-12-17T13:28:38;53.43;;;26.63;;
29240;SDS011;16268;49.880;8.648;2022-12-17T13:31:05;57.40;;;27.20;;
29240;SDS011;16268;49.880;8.648;2022-12-17T13:41:43;54.27;;;24.13;;
29240;SDS011;16268;49.880;8.648;2022-12-17T13:44:51;47.60;;;24.07;;
29240;SDS011;16268;49.880;8.648;2022-12-17T13:47:17;51.42;;;25.00;;
29240;SDS011;16268;49.880;8.648;2022-12-17T13:49:48;46.30;;;24.67;;
29240;SDS011;16268;49.880;8.648;2022-12-17T13:52:17;48.47;;;25.07;;
29240;SDS011;16268;49.880;8.648;2022-12-17T13:54:44;47.77;;;24.50;;
29240;SDS011;16268;49.880;8.648;2022-12-17T13:57:12;49.10;;;23.83;;
29240;SDS011;16268;49.880;8.648;2022-12-17T13:59:38;49.67;;;25.20;;
29240;SDS011;16268;49.880;8.648;2022-12-17T14:02:04;51.50;;;25.67;;
29240;SDS011;16268;49.880;8.648;2022-12-17T14:04:30;46.60;;;25.17;;
29240;SDS011;16268;49.880;8.648;2022-12-17T14:06:59;54.73;;;26.67;;
29240;SDS011;16268;49.880;8.648;2022-12-17T14:09:38;49.63;;;25.90;;
29240;SDS011;16268;49.880;8.648;2022-12-17T14:12:09;50.90;;;25.43;;
29240;SDS011;16268;49.880;8.648;2022-12-17T14:14:49;58.50;;;27.60;;
29240;SDS011;16268;49.880;8.648;2022-12-17T14:17:20;52.80;;;25.40;;
29240;SDS011;16268;49.880;8.648;2022-12-17T14:19:50;51.10;;;24.50;;
29240;SDS011;16268;49.880;8.648;2022-12-17T14:22:37;50.72;;;25.40;;
29240;SDS011;16268;49.880;8.648;2022-12-17T14:25:09;48.73;;;23.83;;
29240;SDS011;16268;49.880;8.648;2022-12-17T14:27:40;48.97;;;24.63;;
29240;SDS011;16268;49.880;8.648;2022-12-17T14:30:22;51.40;;;24.03;;
29240;SDS011;16268;49.880;8.648;2022-12-17T14:32:54;49.03;;;24.70;;
29240;SDS011;16268;49.880;8.648;2022-12-17T14:35:22;52.37;;;24.27;;
29240;SDS011;16268;49.880;8.648;2022-12-17T14:37:51;52.50;;;24.90;;
29240;SDS011;16268;49.880;8.648;2022-12-17T14:40:17;52.80;;;25.37;;
29240;SDS011;16268;49.880;8.648;2022-12-17T14:42:44;52.17;;;25.80;;
29240;SDS011;16268;49.880;8.648;2022-12-17T14:47:39;53.42;;;25.63;;
29240;SDS011;16268;49.880;8.648;2022-12-17T14:52:42;55.27;;;26.57;;
29240;SDS011;16268;49.880;8.648;2022-12-17T14:58:12;52.57;;;24.43;;
29240;SDS011;16268;49.880;8.648;2022-12-17T15:00:39;49.83;;;24.53;;
29240;SDS011;16268;49.880;8.648;2022-12-17T15:03:09;49.10;;;24.47;;
29240;SDS011;16268;49.880;8.648;2022-12-17T15:05:41;52.30;;;24.63;;
29240;SDS011;16268;49.880;8.648;2022-12-17T15:08:07;54.10;;;25.80;;
29240;SDS011;16268;49.880;8.648;2022-12-17T15:10:35;53.00;;;25.43;;
29240;SDS011;16268;49.880;8.648;2022-12-17T15:13:00;49.90;;;25.83;;
29240;SDS011;16268;49.880;8.648;2022-12-17T15:15:26;54.40;;;25.10;;
29240;SDS011;16268;49.880;8.648;2022-12-17T15:17:51;54.87;;;26.17;;
29240;SDS011;16268;49.880;8.648;2022-12-17T15:20:17;54.80;;;25.67;;
29240;SDS011;16268;49.880;8.648;2022-12-17T15:22:45;53.23;;;26.03;;
29240;SDS011;16268;49.880;8.648;2022-12-17T15:25:12;54.43;;;25.93;;
29240;SDS011;16268;49.880;8.648;2022-12-17T15:27:40;56.20;;;25.83;;
29240;SDS011;16268;49.880;8.648;2022-12-17T15:30:06;60.43;;;27.83;;
29240;SDS011;16268;49.880;8.648;2022-12-17T15:32:33;57.13;;;24.93;;
29240;SDS011;16268;49.880;8.648;2022-12-17T15:34:59;53.43;;;26.10;;
29240;SDS011;16268;49.880;8.648;2022-12-17T15:37:24;54.33;;;26.00;;
29240;SDS011;16268;49.880;8.648;2022-12-17T15:39:50;57.13;;;26.07;;
29240;SDS011;16268;49.880;8.648;2022-12-17T15:42:16;55.33;;;26.27;;
29240;SDS011;16268;49.880;8.648;2022-12-17T15:45:00;51.67;;;25.30;;
29240;SDS011;16268;49.880;8.648;2022-12-17T15:47:25;49.70;;;24.27;;
29240;SDS011;16268;49.880;8.648;2022-12-17T15:49:51;52.47;;;24.87;;
29240;SDS011;16268;49.880;8.648;2022-12-17T15:52:16;57.00;;;27.50;;
29240;SDS011;16268;49.880;8.648;2022-12-17T15:54:42;54.97;;;26.97;;
29240;SDS011;16268;49.880;8.648;2022-12-17T15:57:08;60.57;;;27.30;;
29240;SDS011;16268;49.880;8.648;2022-12-17T15:59:34;60.93;;;25.77;;
29240;SDS011;16268;49.880;8.648;2022-12-17T16:02:00;57.00;;;25.43;;
29240;SDS011;16268;49.880;8.648;2022-12-17T16:04:26;60.87;;;26.63;;
29240;SDS011;16268;49.880;8.648;2022-12-17T16:06:51;59.53;;;27.20;;
29240;SDS011;16268;49.880;8.648;2022-12-17T16:09:17;63.53;;;28.93;;
29240;SDS011;16268;49.880;8.648;2022-12-17T16:11:43;59.27;;;26.53;;
29240;SDS011;16268;49.880;8.648;2022-12-17T16:14:08;56.33;;;26.27;;
29240;SDS011;16268;49.880;8.648;2022-12-17T16:16:34;59.27;;;26.77;;
29240;SDS011;16268;49.880;8.648;2022-12-17T16:19:00;56.87;;;27.53;;
29240;SDS011;16268;49.880;8.648;2022-12-17T16:21:26;57.90;;;27.07;;
29240;SDS011;16268;49.880;8.648;2022-12-17T16:23:52;55.17;;;27.00;;
29240;SDS011;16268;49.880;8.648;2022-12-17T16:26:18;52.83;;;24.13;;
29240;SDS011;16268;49.880;8.648;2022-12-17T16:28:43;57.33;;;26.77;;
29240;SDS011;16268;49.880;8.648;2022-12-17T16:31:10;53.67;;;25.67;;
29240;SDS011;16268;49.880;8.648;2022-12-17T16:33:39;52.38;;;25.15;;
29240;SDS011;16268;49.880;8.648;2022-12-17T16:36:07;59.90;;;26.30;;
29240;SDS011;16268;49.880;8.648;2022-12-17T16:38:34;48.57;;;23.83;;
29240;SDS011;16268;49.880;8.648;2022-12-17T16:41:06;48.03;;;24.27;;
29240;SDS011;16268;49.880;8.648;2022-12-17T16:43:32;49.07;;;23.40;;
29240;SDS011;16268;49.880;8.648;2022-12-17T16:46:01;47.13;;;22.40;;
29240;SDS011;16268;49.880;8.648;2022-12-17T16:48:27;45.87;;;22.67;;
29240;SDS011;16268;49.880;8.648;2022-12-17T16:50:52;48.77;;;23.00;;
29240;SDS011;16268;49.880;8.648;2022-12-17T16:53:18;48.57;;;23.40;;
29240;SDS011;16268;49.880;8.648;2022-12-17T16:55:45;49.03;;;24.30;;
29240;SDS011;16268;49.880;8.648;2022-12-17T16:58:13;52.17;;;24.20;;
29240;SDS011;16268;49.880;8.648;2022-12-17T17:00:39;50.73;;;25.13;;
29240;SDS011;16268;49.880;8.648;2022-12-17T17:03:05;55.50;;;26.60;;
29240;SDS011;16268;49.880;8.648;2022-12-17T17:05:33;54.30;;;25.63;;
29240;SDS011;16268;49.880;8.648;2022-12-17T17:08:00;53.97;;;26.03;;